Country
Station

 

Weather  for  Los Alamos  -  United States    United States

  
8 °C (46 °F)
    
 
 

Current METAR for Los Alamos is :

KLAM 192335Z AUTO 29006G18KT 10SM SCT040 BKN075 OVC090 08/M01 A3015 RMK AO2 T00791011

 

This is a report for Los Alamos - United States.
 
The report was made 20 minutes ago, at 23:35 UTC .
The wind was blowing at a speed of 3.1 meters per second (6.9 miles per hour) with gusts up to 9.3 meters per second (20.7 miles per hour) from west/northwest (290°).
 
The temperature was 8 °C (46 °F), with a dew-point at -1 °C (30 °F).
The atmospheric pressure was 1021 hPa (30.15 inHg).
The relative humidity was 52.9%.
 
There were scattered clouds at a height of 1219 meters (4000 feet) and broken clouds at a height of 2286 meters (7500 feet). The sky was overcast from a height of 2743 meter (9000 feet)
 
The overall visibility was 16.1 kilometers (10.0 miles).
 

 
 
 
 

Country :   A   B   C   D   E   F   G   H   I   J   K   L   M   N   O   P   Q   R   S   T   U   V   W   Y   Z

 

Site Info  |  Disclaimer  |  Credits  |  Privacy
Contact us  |  Add to favorites
© 2013-2019 METARs - All rights reserved